createdAt,value
2023-04-12T00:00:52.637Z,70.57
2023-04-12T00:01:54.201Z,70.82
2023-04-12T00:02:55.852Z,70.26
2023-04-12T00:03:57.635Z,70.37
2023-04-12T00:05:02.684Z,70.50
2023-04-12T00:06:07.342Z,71.08
2023-04-12T00:07:10.108Z,71.37
2023-04-12T00:08:11.625Z,70.72
2023-04-12T00:09:13.809Z,71.49
2023-04-12T00:10:15.570Z,72.32
2023-04-12T00:11:17.154Z,72.61
2023-04-12T00:12:19.475Z,72.37
2023-04-12T00:13:21.147Z,72.21
2023-04-12T00:14:22.689Z,72.10
2023-04-12T00:15:24.407Z,72.48
2023-04-12T00:16:26.175Z,72.89
2023-04-12T00:17:27.873Z,72.56
2023-04-12T00:18:29.419Z,72.98
2023-04-12T00:19:31.136Z,72.51
2023-04-12T00:20:32.960Z,72.92
2023-04-12T00:21:34.477Z,72.85
2023-04-12T00:22:37.048Z,72.90
2023-04-12T00:23:39.443Z,72.79
2023-04-12T00:24:41.629Z,72.71
2023-04-12T00:25:43.150Z,72.52
2023-04-12T00:26:44.676Z,72.28
2023-04-12T00:27:46.212Z,72.94
2023-04-12T00:28:48.443Z,73.65
2023-04-12T00:29:49.978Z,73.35
2023-04-12T00:30:51.581Z,72.68
2023-04-12T00:31:53.369Z,73.15
2023-04-12T00:32:54.944Z,73.77
2023-04-12T00:33:56.713Z,73.04
2023-04-12T00:34:58.436Z,74.07
2023-04-12T00:36:00.001Z,73.69
2023-04-12T00:37:02.299Z,73.56
2023-04-12T00:38:06.218Z,73.20
2023-04-12T00:39:07.936Z,74.26
2023-04-12T00:40:10.186Z,73.88
2023-04-12T00:41:12.735Z,73.37
2023-04-12T00:42:14.323Z,72.85
2023-04-12T00:43:19.722Z,73.52
2023-04-12T00:44:21.308Z,73.26
2023-04-12T00:45:23.192Z,73.89
2023-04-12T00:46:24.819Z,73.61
2023-04-12T00:47:26.656Z,73.57
2023-04-12T00:48:28.918Z,74.25
2023-04-12T00:49:31.521Z,73.63
2023-04-12T00:50:33.080Z,73.90
2023-04-12T00:51:34.670Z,73.75
2023-04-12T00:52:36.386Z,74.04
2023-04-12T00:53:39.677Z,73.84
2023-04-12T00:54:43.296Z,74.18
2023-04-12T00:55:46.093Z,74.24
2023-04-12T00:56:48.117Z,73.94
2023-04-12T00:57:49.876Z,73.80
2023-04-12T00:58:52.431Z,73.64
2023-04-12T00:59:53.988Z,74.04
2023-04-12T01:00:55.622Z,73.81
2023-04-12T01:01:58.252Z,72.92
2023-04-12T01:03:02.479Z,73.20
2023-04-12T01:04:04.833Z,73.76
2023-04-12T01:05:08.540Z,73.75
2023-04-12T01:06:21.163Z,73.91
2023-04-12T01:07:55.440Z,73.57
2023-04-12T01:09:06.279Z,73.05
2023-04-12T01:10:20.604Z,73.39
2023-04-12T01:11:42.353Z,72.71
2023-04-12T01:12:44.318Z,72.67
2023-04-12T01:14:14.962Z,72.15
2023-04-12T01:15:17.269Z,71.75
2023-04-12T01:16:46.211Z,72.51
2023-04-12T01:17:58.193Z,72.36
2023-04-12T01:19:06.316Z,72.49
2023-04-12T01:20:14.395Z,72.32
2023-04-12T01:21:31.280Z,71.90
2023-04-12T01:23:43.806Z,71.81
2023-04-12T01:25:03.825Z,71.45
2023-04-12T01:26:21.879Z,71.60
2023-04-12T01:27:42.141Z,71.50
2023-04-12T01:28:45.330Z,71.98
2023-04-12T01:29:50.094Z,71.14
2023-04-12T01:30:52.200Z,71.59
2023-04-12T01:31:58.189Z,71.44
2023-04-12T01:33:07.285Z,71.31
2023-04-12T01:34:11.880Z,71.10
2023-04-12T01:35:15.911Z,71.41
2023-04-12T01:36:22.775Z,71.92
2023-04-12T01:37:24.614Z,70.80
2023-04-12T01:38:27.144Z,71.42
2023-04-12T01:39:30.917Z,72.25
2023-04-12T01:40:33.374Z,72.15
2023-04-12T01:41:39.981Z,71.69
2023-04-12T01:42:41.536Z,71.60
2023-04-12T01:43:44.103Z,71.74
2023-04-12T01:44:46.027Z,72.50
2023-04-12T01:45:47.617Z,71.76
2023-04-12T01:46:49.684Z,71.67
2023-04-12T01:47:51.313Z,71.91
2023-04-12T01:48:54.532Z,71.92
2023-04-12T01:50:04.980Z,72.04
2023-04-12T01:51:14.391Z,72.26
2023-04-12T01:52:21.180Z,71.94
2023-04-12T01:53:38.025Z,71.40
2023-04-12T01:54:42.654Z,72.11
2023-04-12T01:55:48.331Z,72.27
2023-04-12T01:56:54.887Z,71.91
2023-04-12T01:57:57.754Z,71.98
2023-04-12T01:59:02.378Z,72.98
2023-04-12T02:00:07.640Z,71.89
2023-04-12T02:01:11.776Z,72.16
2023-04-12T02:02:13.945Z,73.32
2023-04-12T02:03:16.623Z,72.59
2023-04-12T02:04:19.735Z,73.00
2023-04-12T02:05:21.584Z,72.23
2023-04-12T02:06:23.882Z,71.89
2023-04-12T02:07:25.651Z,72.23
2023-04-12T02:08:27.195Z,72.00
2023-04-12T02:09:28.774Z,71.87
2023-04-12T02:10:36.574Z,72.63
2023-04-12T02:11:38.187Z,72.36
2023-04-12T02:12:39.739Z,73.32
2023-04-12T02:13:41.435Z,72.43
2023-04-12T02:14:43.000Z,72.93
2023-04-12T02:15:45.884Z,72.95
2023-04-12T02:16:48.031Z,73.13
2023-04-12T02:17:54.007Z,72.56
2023-04-12T02:18:58.873Z,72.88
2023-04-12T02:20:01.044Z,72.40
2023-04-12T02:21:02.629Z,72.57
2023-04-12T02:22:05.769Z,71.61
2023-04-12T02:23:07.284Z,72.50
2023-04-12T02:24:10.431Z,71.60
2023-04-12T02:25:12.059Z,72.00
2023-04-12T02:26:13.606Z,72.26
2023-04-12T02:27:18.818Z,71.50
2023-04-12T02:28:20.424Z,70.67
2023-04-12T02:29:21.962Z,70.53
2023-04-12T02:30:23.559Z,71.61
2023-04-12T02:31:25.129Z,70.84
2023-04-12T02:32:26.671Z,71.30
2023-04-12T02:33:29.177Z,71.13
2023-04-12T02:34:34.309Z,72.11
2023-04-12T02:35:36.421Z,71.66
2023-04-12T02:36:38.195Z,72.07
2023-04-12T02:37:40.462Z,71.60
2023-04-12T02:38:42.094Z,72.00
2023-04-12T02:39:44.760Z,71.37
2023-04-12T02:40:46.292Z,71.86
2023-04-12T02:41:47.865Z,71.71
2023-04-12T02:42:49.496Z,71.28
2023-04-12T02:43:51.449Z,72.16
2023-04-12T02:44:53.050Z,72.67
2023-04-12T02:45:54.691Z,73.20
2023-04-12T02:46:56.292Z,72.44
2023-04-12T02:47:57.842Z,72.97
2023-04-12T02:48:59.377Z,72.59
2023-04-12T02:50:00.985Z,72.29
2023-04-12T02:51:02.649Z,72.14
2023-04-12T02:52:04.795Z,72.32
2023-04-12T02:53:06.337Z,72.27
2023-04-12T02:54:07.873Z,72.78
2023-04-12T02:55:09.777Z,72.35
2023-04-12T02:56:12.029Z,73.00
2023-04-12T02:57:13.766Z,72.06
2023-04-12T02:58:15.386Z,73.11
2023-04-12T02:59:17.276Z,71.97
2023-04-12T03:00:19.107Z,71.82
2023-04-12T03:01:20.770Z,72.08
2023-04-12T03:02:23.353Z,72.67
2023-04-12T03:03:26.310Z,71.73
2023-04-12T03:04:30.678Z,72.63
2023-04-12T03:05:32.404Z,72.56
2023-04-12T03:06:34.124Z,72.41
2023-04-12T03:07:36.270Z,72.28
2023-04-12T03:08:38.344Z,72.55
2023-04-12T03:09:42.583Z,72.71
2023-04-12T03:10:44.329Z,73.36
2023-04-12T03:11:46.845Z,72.76
2023-04-12T03:12:48.400Z,73.22
2023-04-12T03:13:49.932Z,72.92
2023-04-12T03:14:51.517Z,72.28
2023-04-12T03:15:58.379Z,72.18
2023-04-12T03:17:00.024Z,72.59
2023-04-12T03:18:01.649Z,71.45
2023-04-12T03:19:03.606Z,71.91
2023-04-12T03:20:11.099Z,72.34
2023-04-12T03:21:12.639Z,73.56
2023-04-12T03:22:14.212Z,73.09
2023-04-12T03:23:15.869Z,73.67
2023-04-12T03:24:17.465Z,74.77
2023-04-12T03:25:19.181Z,74.24
2023-04-12T03:26:20.868Z,74.46
2023-04-12T03:27:22.485Z,74.47
2023-04-12T03:28:23.997Z,74.53
2023-04-12T03:29:25.540Z,73.87
2023-04-12T03:30:27.067Z,74.70
2023-04-12T03:31:28.653Z,74.21
2023-04-12T03:32:30.376Z,74.23
2023-04-12T03:33:31.984Z,73.97
2023-04-12T03:34:33.606Z,74.79
2023-04-12T03:35:35.204Z,74.41
2023-04-12T03:36:38.044Z,74.46
2023-04-12T03:37:41.505Z,74.48
2023-04-12T03:38:43.045Z,74.78
2023-04-12T03:39:47.975Z,75.15
2023-04-12T03:40:49.893Z,74.59
2023-04-12T03:41:53.143Z,74.94
2023-04-12T03:42:54.741Z,76.26
2023-04-12T03:43:56.923Z,76.02
2023-04-12T03:44:58.772Z,76.04
2023-04-12T03:46:00.392Z,76.94
2023-04-12T03:47:02.045Z,76.81
2023-04-12T03:48:05.026Z,77.19
2023-04-12T03:49:06.616Z,76.91
2023-04-12T03:50:12.235Z,76.77
2023-04-12T03:51:15.353Z,77.95
2023-04-12T03:52:16.875Z,78.33
2023-04-12T03:53:18.386Z,78.04
2023-04-12T03:54:20.717Z,77.53
2023-04-12T03:55:22.511Z,77.84
2023-04-12T03:56:24.094Z,79.85
2023-04-12T03:57:26.162Z,80.70
2023-04-12T03:58:27.699Z,80.90
2023-04-12T03:59:29.742Z,81.19
2023-04-12T04:00:34.128Z,80.48
2023-04-12T04:01:36.326Z,80.19
2023-04-12T04:02:38.530Z,79.37
2023-04-12T04:03:41.243Z,79.14
2023-04-12T04:04:43.183Z,80.03
2023-04-12T04:05:45.317Z,79.32
2023-04-12T04:06:47.369Z,79.35
2023-04-12T04:07:48.912Z,79.55
2023-04-12T04:08:50.719Z,80.13
2023-04-12T04:09:54.548Z,79.53
2023-04-12T04:11:00.731Z,79.33
2023-04-12T04:12:02.344Z,79.64
2023-04-12T04:13:03.927Z,79.28
2023-04-12T04:14:05.723Z,79.27
2023-04-12T04:15:07.958Z,78.90
2023-04-12T04:16:11.048Z,79.34
2023-04-12T04:17:12.624Z,78.54
2023-04-12T04:18:14.298Z,78.84
2023-04-12T04:19:15.892Z,78.74
2023-04-12T04:20:18.854Z,78.48
2023-04-12T04:21:22.372Z,77.60
2023-04-12T04:22:23.980Z,77.01
2023-04-12T04:23:25.502Z,76.71
2023-04-12T04:24:27.037Z,77.04
2023-04-12T04:25:30.191Z,77.04
2023-04-12T04:26:34.633Z,75.67
2023-04-12T04:27:38.511Z,75.92
2023-04-12T04:28:45.550Z,76.77
2023-04-12T04:29:47.403Z,76.50
2023-04-12T04:30:48.982Z,76.74
2023-04-12T04:31:50.877Z,76.46
2023-04-12T04:32:52.902Z,76.06
2023-04-12T04:33:54.642Z,76.95
2023-04-12T04:34:59.844Z,77.40
2023-04-12T04:36:02.110Z,77.50
2023-04-12T04:37:03.716Z,77.21
2023-04-12T04:38:05.215Z,76.07
2023-04-12T04:39:06.746Z,76.82
2023-04-12T04:40:08.891Z,75.99
2023-04-12T04:41:10.473Z,74.86
2023-04-12T04:42:11.981Z,74.08
2023-04-12T04:43:13.981Z,75.47
2023-04-12T04:44:15.581Z,74.31
2023-04-12T04:45:17.204Z,75.65
2023-04-12T04:46:22.122Z,75.50
2023-04-12T04:47:25.092Z,75.88
2023-04-12T04:48:26.883Z,76.00
2023-04-12T04:49:29.308Z,75.42
2023-04-12T04:50:31.278Z,75.52
2023-04-12T04:51:32.970Z,76.08
2023-04-12T04:52:34.527Z,75.92
2023-04-12T04:53:36.983Z,76.55
2023-04-12T04:54:38.884Z,76.51
2023-04-12T04:55:41.372Z,77.25
2023-04-12T04:56:42.926Z,77.34
2023-04-12T04:57:44.949Z,77.74
2023-04-12T04:58:46.678Z,78.42
2023-04-12T04:59:48.181Z,79.08
2023-04-12T05:00:49.825Z,78.30
2023-04-12T05:01:52.414Z,78.66
2023-04-12T05:02:54.242Z,78.43
2023-04-12T05:03:56.303Z,78.61
2023-04-12T05:05:00.004Z,77.48
2023-04-12T05:06:04.420Z,78.03
2023-04-12T05:07:06.323Z,78.20
2023-04-12T05:08:07.995Z,79.13
2023-04-12T05:09:10.148Z,78.98
2023-04-12T05:10:11.976Z,78.53
2023-04-12T05:11:13.702Z,78.24
2023-04-12T05:12:15.458Z,78.14
2023-04-12T05:13:17.041Z,78.90
2023-04-12T05:14:18.902Z,79.06
2023-04-12T05:15:21.319Z,77.94
2023-04-12T05:16:22.914Z,73.66
2023-04-12T05:17:24.493Z,75.63
2023-04-12T05:18:26.328Z,76.41
2023-04-12T05:19:27.821Z,76.38
2023-04-12T05:20:29.335Z,74.15
2023-04-12T05:21:31.190Z,76.04
2023-04-12T05:22:32.748Z,76.66
2023-04-12T05:23:41.851Z,76.08
2023-04-12T05:24:43.406Z,74.77
2023-04-12T05:25:48.433Z,75.09
2023-04-12T05:26:50.840Z,74.24
2023-04-12T05:27:52.379Z,74.61
2023-04-12T05:28:53.980Z,73.21
2023-04-12T05:29:57.154Z,73.12
2023-04-12T05:30:58.862Z,72.47
2023-04-12T05:32:00.481Z,72.69
2023-04-12T05:33:02.174Z,72.91
2023-04-12T05:34:03.980Z,73.23
2023-04-12T05:35:06.193Z,72.95
2023-04-12T05:36:07.974Z,73.68
2023-04-12T05:37:09.717Z,70.58
2023-04-12T05:38:11.330Z,71.60
2023-04-12T05:39:12.882Z,71.96
2023-04-12T05:40:14.445Z,71.71
2023-04-12T05:41:16.060Z,71.68
2023-04-12T05:42:17.580Z,70.70
2023-04-12T05:43:19.253Z,71.12
2023-04-12T05:44:20.839Z,70.44
2023-04-12T05:45:22.447Z,70.91
2023-04-12T05:46:24.073Z,70.91
2023-04-12T05:47:25.794Z,71.59
2023-04-12T05:48:27.412Z,71.42
2023-04-12T05:49:31.295Z,69.94
2023-04-12T05:50:32.878Z,69.73
2023-04-12T05:51:41.063Z,67.94
2023-04-12T05:52:43.298Z,68.38
2023-04-12T05:53:44.840Z,68.74
2023-04-12T05:54:46.495Z,67.74
2023-04-12T05:55:48.253Z,67.81
2023-04-12T05:56:49.891Z,67.31
2023-04-12T05:57:51.592Z,66.85
2023-04-12T05:58:53.142Z,65.88
2023-04-12T05:59:54.929Z,66.17
2023-04-12T06:00:56.547Z,66.13
2023-04-12T06:01:58.929Z,64.09
2023-04-12T06:03:00.636Z,64.82
2023-04-12T06:04:02.500Z,64.45
2023-04-12T06:05:05.246Z,64.12
2023-04-12T06:06:08.001Z,64.35
2023-04-12T06:07:10.082Z,63.24
2023-04-12T06:08:12.936Z,63.28
2023-04-12T06:09:15.173Z,61.96
2023-04-12T06:10:18.056Z,61.45
2023-04-12T06:11:19.757Z,61.78
2023-04-12T06:12:21.320Z,60.87
2023-04-12T06:13:22.864Z,60.59
2023-04-12T06:14:24.429Z,60.17
2023-04-12T06:15:26.320Z,58.77
2023-04-12T06:16:28.075Z,58.39
2023-04-12T06:17:29.705Z,59.48
2023-04-12T06:18:31.502Z,57.83
2023-04-12T06:19:33.025Z,58.48
2023-04-12T06:20:34.776Z,57.32
2023-04-12T06:21:36.458Z,57.13
2023-04-12T06:22:38.402Z,56.34
2023-04-12T06:23:39.984Z,57.42
2023-04-12T06:24:41.601Z,57.00
2023-04-12T06:25:43.194Z,56.77
2023-04-12T06:26:47.010Z,58.21
2023-04-12T06:27:48.560Z,55.99
2023-04-12T06:28:50.066Z,56.23
2023-04-12T06:29:52.117Z,57.07
2023-04-12T06:30:54.478Z,57.57
2023-04-12T06:31:56.100Z,57.50
2023-04-12T06:32:58.010Z,57.43
2023-04-12T06:34:00.990Z,56.79
2023-04-12T06:35:02.768Z,56.65
2023-04-12T06:36:04.679Z,57.29
2023-04-12T06:37:06.206Z,55.37
2023-04-12T06:38:07.748Z,57.46
2023-04-12T06:39:09.726Z,57.16
2023-04-12T06:40:12.597Z,57.08
2023-04-12T06:41:14.348Z,56.69
2023-04-12T06:42:16.069Z,56.07
2023-04-12T06:43:20.303Z,57.20
2023-04-12T06:44:21.904Z,57.97
2023-04-12T06:45:23.481Z,56.71
2023-04-12T06:46:28.394Z,56.96
2023-04-12T06:47:30.808Z,56.29
2023-04-12T06:48:32.405Z,57.48
2023-04-12T06:49:33.949Z,57.23
2023-04-12T06:50:35.677Z,56.68
2023-04-12T06:51:37.365Z,56.62
2023-04-12T06:52:38.944Z,57.50
2023-04-12T06:53:40.634Z,57.90
2023-04-12T06:54:42.455Z,58.08
2023-04-12T06:55:44.062Z,57.35
2023-04-12T06:56:45.673Z,57.46
2023-04-12T06:57:47.311Z,57.03
2023-04-12T06:58:48.964Z,57.73
2023-04-12T06:59:51.621Z,58.36
2023-04-12T07:00:53.196Z,58.07
2023-04-12T07:01:54.956Z,56.23
2023-04-12T07:02:56.754Z,57.64
2023-04-12T07:03:58.575Z,56.95
2023-04-12T07:05:00.183Z,58.09
2023-04-12T07:06:17.209Z,56.57
2023-04-12T07:07:25.883Z,57.05
2023-04-12T07:08:29.702Z,57.33
2023-04-12T07:09:32.530Z,57.54
2023-04-12T07:10:36.065Z,58.24
2023-04-12T07:11:37.620Z,57.54
2023-04-12T07:12:39.346Z,58.72
2023-04-12T07:13:40.915Z,58.87
2023-04-12T07:14:44.645Z,59.05
2023-04-12T07:15:47.315Z,58.70
2023-04-12T07:16:49.211Z,59.45
2023-04-12T07:17:51.872Z,59.73
2023-04-12T07:18:53.429Z,59.99
2023-04-12T07:19:55.130Z,58.79
2023-04-12T07:20:59.561Z,59.34
2023-04-12T07:22:01.135Z,59.12
2023-04-12T07:23:02.695Z,58.96
2023-04-12T07:24:04.463Z,60.00
2023-04-12T07:25:10.320Z,59.32
2023-04-12T07:26:11.976Z,60.52
2023-04-12T07:27:13.528Z,59.57
2023-04-12T07:28:15.092Z,58.88
2023-04-12T07:29:17.407Z,59.78
2023-04-12T07:30:19.081Z,60.37
2023-04-12T07:31:20.860Z,60.04
2023-04-12T07:32:23.078Z,60.79
2023-04-12T07:33:26.505Z,60.63
2023-04-12T07:34:28.279Z,60.55
2023-04-12T07:35:29.962Z,59.96
2023-04-12T07:36:31.940Z,60.40
2023-04-12T07:37:33.454Z,60.06
2023-04-12T07:38:35.092Z,59.63
2023-04-12T07:39:37.486Z,59.69
2023-04-12T07:40:39.099Z,59.67
2023-04-12T07:41:46.338Z,60.27
2023-04-12T07:42:47.855Z,59.63
2023-04-12T07:43:50.406Z,60.12
2023-04-12T07:44:51.947Z,60.08
2023-04-12T07:45:56.474Z,61.02
2023-04-12T07:46:58.188Z,60.46
2023-04-12T07:47:59.765Z,60.31
2023-04-12T07:49:01.611Z,61.31
2023-04-12T07:50:04.115Z,60.95
2023-04-12T07:51:06.221Z,59.82
2023-04-12T07:52:07.902Z,59.81
2023-04-12T07:53:22.894Z,59.25
2023-04-12T07:54:27.824Z,59.72
2023-04-12T07:55:29.424Z,59.19
2023-04-12T07:56:34.561Z,59.85
2023-04-12T07:57:36.457Z,60.06
2023-04-12T07:58:38.027Z,60.45
2023-04-12T07:59:39.638Z,60.68
2023-04-12T08:00:41.428Z,60.64
2023-04-12T08:01:43.006Z,60.69
2023-04-12T08:02:44.689Z,60.45
2023-04-12T08:03:47.523Z,60.85
2023-04-12T08:04:49.248Z,60.24
2023-04-12T08:05:53.834Z,60.52
2023-04-12T08:06:55.694Z,60.37
2023-04-12T08:07:57.231Z,61.36
2023-04-12T08:08:58.800Z,62.19
2023-04-12T08:10:00.351Z,61.56
2023-04-12T08:11:03.096Z,62.74
2023-04-12T08:12:04.797Z,61.48
2023-04-12T08:13:07.023Z,61.39
2023-04-12T08:14:08.639Z,61.86
2023-04-12T08:15:10.504Z,60.18
2023-04-12T08:16:13.207Z,60.02
2023-04-12T08:17:16.634Z,60.24
2023-04-12T08:18:18.491Z,59.96
2023-04-12T08:19:20.466Z,61.29
2023-04-12T08:20:22.098Z,60.34
2023-04-12T08:21:23.792Z,60.12
2023-04-12T08:22:25.935Z,61.13
2023-04-12T08:23:28.120Z,60.37
2023-04-12T08:24:29.804Z,60.58
2023-04-12T08:25:31.512Z,61.14
2023-04-12T08:26:33.129Z,60.93
2023-04-12T08:27:34.912Z,59.30
2023-04-12T08:28:37.833Z,59.38
2023-04-12T08:29:40.996Z,60.49
2023-04-12T08:30:43.747Z,58.61
2023-04-12T08:31:47.325Z,57.40
2023-04-12T08:32:48.942Z,57.67
2023-04-12T08:33:50.734Z,56.83
2023-04-12T08:34:52.312Z,57.16
2023-04-12T08:35:54.357Z,56.33
2023-04-12T08:36:59.278Z,57.24
2023-04-12T08:38:06.961Z,57.81
2023-04-12T08:39:09.548Z,57.58
2023-04-12T08:40:11.402Z,58.80
2023-04-12T08:41:14.022Z,57.28
2023-04-12T08:42:16.898Z,58.51
2023-04-12T08:43:22.192Z,58.35
2023-04-12T08:44:35.910Z,57.49
2023-04-12T08:45:38.045Z,58.31
2023-04-12T08:46:39.755Z,58.37
2023-04-12T08:47:43.711Z,58.86
2023-04-12T08:48:47.520Z,58.06
2023-04-12T08:49:49.285Z,57.06
2023-04-12T08:50:52.158Z,55.95
2023-04-12T08:51:55.145Z,55.25
2023-04-12T08:52:58.919Z,55.96
2023-04-12T08:54:00.546Z,56.63
2023-04-12T08:55:04.322Z,54.11
2023-04-12T08:56:09.467Z,54.01
2023-04-12T08:57:13.210Z,53.96
2023-04-12T08:58:15.788Z,54.34
2023-04-12T08:59:17.718Z,53.88
2023-04-12T09:00:20.937Z,55.11
2023-04-12T09:01:22.677Z,55.29
2023-04-12T09:02:24.403Z,54.89
2023-04-12T09:03:26.715Z,57.45
2023-04-12T09:04:29.648Z,58.40
2023-04-12T09:05:31.912Z,58.15
2023-04-12T09:06:33.762Z,57.98
2023-04-12T09:07:36.166Z,60.44
2023-04-12T09:08:37.860Z,62.11
2023-04-12T09:09:42.957Z,62.84
2023-04-12T09:10:44.698Z,64.02
2023-04-12T09:11:46.231Z,63.67
2023-04-12T09:12:47.865Z,63.38
2023-04-12T09:13:49.418Z,63.49
2023-04-12T09:15:12.638Z,61.55
2023-04-12T09:16:14.415Z,62.88
2023-04-12T09:17:23.956Z,63.75
2023-04-12T09:18:27.486Z,63.81
2023-04-12T09:19:34.135Z,64.08
2023-04-12T09:20:36.808Z,62.60
2023-04-12T09:21:52.872Z,59.22
2023-04-12T09:22:55.799Z,59.77
2023-04-12T09:24:14.764Z,58.69
2023-04-12T09:25:16.659Z,59.43
2023-04-12T09:26:29.008Z,57.96
2023-04-12T09:27:30.592Z,59.71
2023-04-12T09:28:32.347Z,57.37
2023-04-12T09:29:34.375Z,58.27
2023-04-12T09:30:42.237Z,58.11
2023-04-12T09:31:56.030Z,58.13
2023-04-12T09:33:11.322Z,58.94
2023-04-12T09:34:12.872Z,57.63
2023-04-12T09:35:14.492Z,57.97
2023-04-12T09:36:17.580Z,58.59
2023-04-12T09:37:19.141Z,58.80
2023-04-12T09:38:20.670Z,57.54
2023-04-12T09:39:33.070Z,54.72
2023-04-12T09:40:36.460Z,53.93
2023-04-12T09:41:38.110Z,55.42
2023-04-12T09:42:53.784Z,53.18
2023-04-12T09:43:55.839Z,53.84
2023-04-12T09:44:58.592Z,53.92
2023-04-12T09:46:11.823Z,51.86
2023-04-12T09:47:13.620Z,48.61
2023-04-12T09:48:21.219Z,48.86
2023-04-12T09:49:44.842Z,48.22
2023-04-12T09:50:46.430Z,47.18
2023-04-12T09:51:52.621Z,47.68
2023-04-12T09:52:55.322Z,47.14
2023-04-12T09:54:02.287Z,46.75
2023-04-12T09:55:09.851Z,47.63
2023-04-12T09:56:12.449Z,47.18
2023-04-12T09:57:18.003Z,46.76
2023-04-12T09:58:21.476Z,48.04
2023-04-12T09:59:27.206Z,48.21
2023-04-12T10:00:30.488Z,48.87
2023-04-12T10:01:38.697Z,47.64
2023-04-12T10:02:42.797Z,48.83
2023-04-12T10:03:46.734Z,46.32
2023-04-12T10:04:48.865Z,47.05
2023-04-12T10:05:50.560Z,48.19
2023-04-12T10:06:52.392Z,47.75
2023-04-12T10:07:55.128Z,48.05
2023-04-12T10:08:57.417Z,46.86
2023-04-12T10:10:00.987Z,46.15
2023-04-12T10:11:02.884Z,46.03
2023-04-12T10:12:05.199Z,46.74
2023-04-12T10:13:07.324Z,45.10
2023-04-12T10:14:10.268Z,45.57
2023-04-12T10:15:13.608Z,45.30
2023-04-12T10:16:16.494Z,44.21
2023-04-12T10:17:21.345Z,44.26
2023-04-12T10:18:24.008Z,43.83
2023-04-12T10:19:26.874Z,44.29
2023-04-12T10:20:29.722Z,44.03
2023-04-12T10:21:31.589Z,43.36
2023-04-12T10:22:33.259Z,43.92
2023-04-12T10:23:35.324Z,43.02
2023-04-12T10:24:38.833Z,43.58
2023-04-12T10:25:42.828Z,43.65
2023-04-12T10:26:44.696Z,43.42
2023-04-12T10:27:47.645Z,43.69
2023-04-12T10:29:23.535Z,41.78
2023-04-12T10:30:32.177Z,43.24
2023-04-12T10:31:34.246Z,42.42
2023-04-12T10:32:36.518Z,39.24
2023-04-12T10:33:38.379Z,38.89
2023-04-12T10:34:42.721Z,38.61
2023-04-12T10:36:00.708Z,38.78
2023-04-12T10:37:02.885Z,39.71
2023-04-12T10:38:04.999Z,39.18
2023-04-12T10:39:11.085Z,38.58
2023-04-12T10:40:19.607Z,38.73
2023-04-12T10:41:22.229Z,37.40
2023-04-12T10:42:28.968Z,37.81
2023-04-12T10:43:30.767Z,39.22
2023-04-12T10:44:32.411Z,38.63
2023-04-12T10:45:34.157Z,38.28
2023-04-12T10:46:39.300Z,37.87
2023-04-12T10:47:50.304Z,37.40
2023-04-12T10:48:53.467Z,37.71
2023-04-12T10:50:20.002Z,37.86
2023-04-12T10:51:25.516Z,38.10
2023-04-12T10:52:27.137Z,37.57
2023-04-12T10:53:28.920Z,38.30
2023-04-12T10:54:35.589Z,36.51
2023-04-12T10:55:38.541Z,36.11
2023-04-12T10:56:47.424Z,36.80
2023-04-12T10:57:50.272Z,36.35
2023-04-12T10:58:52.377Z,37.02
2023-04-12T10:59:59.582Z,36.01
2023-04-12T11:01:10.048Z,36.20
2023-04-12T11:02:12.755Z,36.69
2023-04-12T11:03:14.969Z,36.74
2023-04-12T11:04:21.279Z,35.82
2023-04-12T11:05:24.531Z,35.41
2023-04-12T11:07:03.193Z,35.47
2023-04-12T11:08:05.748Z,35.88
2023-04-12T11:09:07.479Z,35.82
2023-04-12T11:10:16.690Z,35.57
2023-04-12T11:11:22.739Z,35.46
2023-04-12T11:12:29.172Z,35.91
2023-04-12T11:13:40.090Z,35.08
2023-04-12T11:14:53.139Z,36.21
2023-04-12T11:16:02.073Z,35.57
2023-04-12T11:17:06.550Z,35.69
2023-04-12T11:18:08.601Z,35.23
2023-04-12T11:19:10.780Z,36.22
2023-04-12T11:20:15.980Z,35.69
2023-04-12T11:21:19.043Z,35.79
2023-04-12T11:22:22.795Z,36.65
2023-04-12T11:23:24.650Z,35.99
2023-04-12T11:24:27.582Z,35.36
2023-04-12T11:25:29.690Z,35.85
2023-04-12T11:26:32.118Z,36.85
2023-04-12T11:27:34.466Z,36.02
2023-04-12T11:28:36.175Z,36.42
2023-04-12T11:29:38.122Z,35.02
2023-04-12T11:30:58.124Z,34.54
2023-04-12T11:32:02.572Z,34.33
2023-04-12T11:33:04.272Z,33.34
2023-04-12T11:34:05.909Z,33.32
2023-04-12T11:35:08.766Z,33.81
2023-04-12T11:36:15.121Z,33.08
2023-04-12T11:37:19.793Z,34.22
2023-04-12T11:38:21.351Z,34.15
2023-04-12T11:39:22.937Z,33.48
2023-04-12T11:40:24.551Z,32.41
2023-04-12T11:41:26.152Z,32.81
2023-04-12T11:42:29.344Z,32.80
2023-04-12T11:43:31.637Z,34.03
2023-04-12T11:44:44.194Z,34.03
2023-04-12T11:46:01.565Z,33.32
2023-04-12T11:47:04.456Z,32.91
2023-04-12T11:48:09.326Z,32.29
2023-04-12T11:49:11.085Z,32.37
2023-04-12T11:50:12.938Z,32.52
2023-04-12T11:51:32.185Z,32.14
2023-04-12T11:52:34.393Z,31.41
2023-04-12T11:53:35.999Z,30.62
2023-04-12T11:54:37.494Z,31.62
2023-04-12T11:55:39.235Z,31.93
2023-04-12T11:56:41.988Z,31.19
2023-04-12T11:57:43.514Z,30.88
2023-04-12T11:58:47.917Z,29.88
2023-04-12T11:59:49.776Z,30.00
2023-04-12T12:00:51.902Z,31.21
2023-04-12T12:01:54.293Z,30.47
2023-04-12T12:03:06.838Z,30.87
2023-04-12T12:04:09.370Z,31.64
2023-04-12T12:05:11.722Z,30.70
2023-04-12T12:06:14.686Z,30.77
2023-04-12T12:07:17.841Z,30.76
2023-04-12T12:08:20.064Z,31.83
2023-04-12T12:09:21.926Z,31.22
2023-04-12T12:10:40.068Z,30.12
2023-04-12T12:11:45.373Z,29.90
2023-04-12T12:12:48.128Z,30.01
2023-04-12T12:13:49.610Z,30.45
2023-04-12T12:14:51.214Z,29.94
2023-04-12T12:15:53.068Z,30.36
2023-04-12T12:16:56.927Z,29.29
2023-04-12T12:17:58.574Z,30.50
2023-04-12T12:19:04.224Z,29.87
2023-04-12T12:20:07.101Z,28.83
2023-04-12T12:21:10.827Z,29.44
2023-04-12T12:22:19.726Z,29.51
2023-04-12T12:23:28.753Z,28.93
2023-04-12T12:24:31.126Z,28.79
2023-04-12T12:25:32.639Z,29.24
2023-04-12T12:26:36.327Z,30.35
2023-04-12T12:27:38.921Z,30.03
2023-04-12T12:28:40.722Z,29.65
2023-04-12T12:29:42.393Z,30.22
2023-04-12T12:30:43.960Z,29.46
2023-04-12T12:31:47.639Z,30.38
2023-04-12T12:32:51.280Z,29.66
2023-04-12T12:33:57.466Z,29.13
2023-04-12T12:34:59.087Z,28.25
2023-04-12T12:36:00.627Z,28.25
2023-04-12T12:37:02.437Z,29.77
2023-04-12T12:38:07.261Z,29.39
2023-04-12T12:39:12.912Z,30.34
2023-04-12T12:40:14.762Z,28.22
2023-04-12T12:41:22.415Z,28.71
2023-04-12T12:42:23.950Z,28.23
2023-04-12T12:43:25.751Z,28.10
2023-04-12T12:44:27.320Z,29.54
2023-04-12T12:45:29.851Z,28.56
2023-04-12T12:46:44.734Z,29.19
2023-04-12T12:48:02.649Z,29.22
2023-04-12T12:49:04.817Z,28.91
2023-04-12T12:50:06.680Z,29.39
2023-04-12T12:51:09.960Z,30.00
2023-04-12T12:52:11.547Z,30.40
2023-04-12T12:53:13.637Z,29.62
2023-04-12T12:54:31.774Z,30.29
2023-04-12T12:55:38.500Z,31.03
2023-04-12T12:56:40.265Z,29.36
2023-04-12T12:57:58.332Z,29.80
2023-04-12T12:59:07.389Z,29.57
2023-04-12T13:00:10.272Z,29.34
2023-04-12T13:01:11.919Z,29.49
2023-04-12T13:02:15.680Z,29.58
2023-04-12T13:03:17.570Z,28.31
2023-04-12T13:04:19.283Z,28.22
2023-04-12T13:05:22.538Z,28.01
2023-04-12T13:06:25.889Z,28.34
2023-04-12T13:07:27.446Z,29.38
2023-04-12T13:08:34.352Z,28.85
2023-04-12T13:09:35.957Z,29.95
2023-04-12T13:10:37.490Z,30.33
2023-04-12T13:11:39.208Z,28.91
2023-04-12T13:12:40.843Z,29.21
2023-04-12T13:13:42.427Z,29.02
2023-04-12T13:14:43.961Z,28.63
2023-04-12T13:15:47.708Z,29.32
2023-04-12T13:16:49.468Z,29.14
2023-04-12T13:17:52.664Z,29.80
2023-04-12T13:18:54.556Z,29.92
2023-04-12T13:19:56.373Z,28.73
2023-04-12T13:20:58.018Z,28.58
2023-04-12T13:21:59.798Z,29.58
2023-04-12T13:23:01.563Z,29.37
2023-04-12T13:24:03.683Z,29.36
2023-04-12T13:25:05.767Z,27.37
2023-04-12T13:26:08.695Z,28.26
2023-04-12T13:27:16.731Z,27.88
2023-04-12T13:28:18.561Z,28.17
2023-04-12T13:29:20.367Z,28.32
2023-04-12T13:30:21.878Z,29.45
2023-04-12T13:31:23.559Z,29.01
2023-04-12T13:32:25.308Z,28.92
2023-04-12T13:33:27.100Z,30.10
2023-04-12T13:34:28.806Z,29.90
2023-04-12T13:35:30.332Z,30.18
2023-04-12T13:36:31.900Z,29.67
2023-04-12T13:37:34.203Z,28.46
2023-04-12T13:38:35.858Z,28.92
2023-04-12T13:39:40.010Z,28.90